sensor_id;sensor_type;location;lat;lon;timestamp;P1;durP1;ratioP1;P2;durP2;ratioP2
10987;SDS011;5547;42.672;23.230;2024-03-02T00:01:54;31.73;;;19.03;;
10987;SDS011;5547;42.672;23.230;2024-03-02T00:04:54;31.30;;;18.67;;
10987;SDS011;5547;42.672;23.230;2024-03-02T00:07:55;31.50;;;18.40;;
10987;SDS011;5547;42.672;23.230;2024-03-02T00:10:59;30.30;;;16.77;;
10987;SDS011;5547;42.672;23.230;2024-03-02T00:13:59;31.00;;;18.30;;
10987;SDS011;5547;42.672;23.230;2024-03-02T00:17:00;28.77;;;18.92;;
10987;SDS011;5547;42.672;23.230;2024-03-02T00:20:00;29.67;;;17.00;;
10987;SDS011;5547;42.672;23.230;2024-03-02T00:23:03;29.80;;;19.23;;
10987;SDS011;5547;42.672;23.230;2024-03-02T00:26:04;28.67;;;17.33;;
10987;SDS011;5547;42.672;23.230;2024-03-02T00:29:05;29.50;;;17.77;;
10987;SDS011;5547;42.672;23.230;2024-03-02T00:32:10;29.60;;;18.47;;
10987;SDS011;5547;42.672;23.230;2024-03-02T00:35:12;27.90;;;17.55;;
10987;SDS011;5547;42.672;23.230;2024-03-02T00:38:12;27.30;;;16.90;;
10987;SDS011;5547;42.672;23.230;2024-03-02T00:41:30;28.60;;;16.77;;
10987;SDS011;5547;42.672;23.230;2024-03-02T00:44:31;29.05;;;17.58;;
10987;SDS011;5547;42.672;23.230;2024-03-02T00:47:39;28.27;;;17.30;;
10987;SDS011;5547;42.672;23.230;2024-03-02T00:50:39;30.65;;;17.58;;
10987;SDS011;5547;42.672;23.230;2024-03-02T00:53:39;29.53;;;17.27;;
10987;SDS011;5547;42.672;23.230;2024-03-02T00:56:40;29.17;;;18.03;;
10987;SDS011;5547;42.672;23.230;2024-03-02T00:59:41;31.85;;;18.50;;
10987;SDS011;5547;42.672;23.230;2024-03-02T01:02:41;32.55;;;18.88;;
10987;SDS011;5547;42.672;23.230;2024-03-02T01:05:44;31.77;;;19.02;;
10987;SDS011;5547;42.672;23.230;2024-03-02T01:08:44;34.20;;;19.83;;
10987;SDS011;5547;42.672;23.230;2024-03-02T01:11:44;36.47;;;20.73;;
10987;SDS011;5547;42.672;23.230;2024-03-02T01:14:45;34.90;;;19.50;;
10987;SDS011;5547;42.672;23.230;2024-03-02T01:17:45;30.87;;;19.13;;
10987;SDS011;5547;42.672;23.230;2024-03-02T01:20:45;32.40;;;19.80;;
10987;SDS011;5547;42.672;23.230;2024-03-02T01:23:45;34.33;;;21.00;;
10987;SDS011;5547;42.672;23.230;2024-03-02T01:26:46;37.27;;;20.73;;
10987;SDS011;5547;42.672;23.230;2024-03-02T01:29:46;34.57;;;21.03;;
10987;SDS011;5547;42.672;23.230;2024-03-02T01:32:46;33.70;;;20.13;;
10987;SDS011;5547;42.672;23.230;2024-03-02T01:35:47;55.60;;;29.30;;
10987;SDS011;5547;42.672;23.230;2024-03-02T01:38:50;44.17;;;23.23;;
10987;SDS011;5547;42.672;23.230;2024-03-02T01:41:50;39.87;;;21.70;;
10987;SDS011;5547;42.672;23.230;2024-03-02T01:44:53;39.80;;;22.27;;
10987;SDS011;5547;42.672;23.230;2024-03-02T01:47:54;37.07;;;20.53;;
10987;SDS011;5547;42.672;23.230;2024-03-02T01:50:54;37.83;;;21.13;;
10987;SDS011;5547;42.672;23.230;2024-03-02T01:53:55;37.43;;;21.07;;
10987;SDS011;5547;42.672;23.230;2024-03-02T01:56:55;38.60;;;21.60;;
10987;SDS011;5547;42.672;23.230;2024-03-02T01:59:56;40.03;;;21.70;;
10987;SDS011;5547;42.672;23.230;2024-03-02T02:02:56;38.33;;;21.10;;
10987;SDS011;5547;42.672;23.230;2024-03-02T02:05:57;40.85;;;22.27;;
10987;SDS011;5547;42.672;23.230;2024-03-02T02:08:58;36.53;;;20.50;;
10987;SDS011;5547;42.672;23.230;2024-03-02T02:11:58;35.67;;;20.50;;
10987;SDS011;5547;42.672;23.230;2024-03-02T02:14:59;35.75;;;19.80;;
10987;SDS011;5547;42.672;23.230;2024-03-02T02:17:59;37.00;;;21.30;;
10987;SDS011;5547;42.672;23.230;2024-03-02T02:21:00;35.13;;;20.90;;
10987;SDS011;5547;42.672;23.230;2024-03-02T02:24:00;39.10;;;22.37;;
10987;SDS011;5547;42.672;23.230;2024-03-02T02:27:03;40.37;;;23.57;;
10987;SDS011;5547;42.672;23.230;2024-03-02T02:30:03;41.33;;;23.73;;
10987;SDS011;5547;42.672;23.230;2024-03-02T02:33:04;42.58;;;24.60;;
10987;SDS011;5547;42.672;23.230;2024-03-02T02:36:04;42.03;;;23.40;;
10987;SDS011;5547;42.672;23.230;2024-03-02T02:39:05;48.10;;;25.30;;
10987;SDS011;5547;42.672;23.230;2024-03-02T02:42:06;47.22;;;26.23;;
10987;SDS011;5547;42.672;23.230;2024-03-02T02:45:07;46.93;;;25.30;;
10987;SDS011;5547;42.672;23.230;2024-03-02T02:48:07;42.28;;;23.92;;
10987;SDS011;5547;42.672;23.230;2024-03-02T02:51:07;50.80;;;26.00;;
10987;SDS011;5547;42.672;23.230;2024-03-02T02:54:08;51.07;;;26.53;;
10987;SDS011;5547;42.672;23.230;2024-03-02T02:57:08;54.60;;;27.27;;
10987;SDS011;5547;42.672;23.230;2024-03-02T03:00:12;51.67;;;28.17;;
10987;SDS011;5547;42.672;23.230;2024-03-02T03:03:16;51.97;;;26.63;;
10987;SDS011;5547;42.672;23.230;2024-03-02T03:06:16;51.20;;;27.63;;
10987;SDS011;5547;42.672;23.230;2024-03-02T03:09:16;50.80;;;26.53;;
10987;SDS011;5547;42.672;23.230;2024-03-02T03:12:17;55.07;;;27.40;;
10987;SDS011;5547;42.672;23.230;2024-03-02T03:15:17;53.43;;;25.97;;
10987;SDS011;5547;42.672;23.230;2024-03-02T03:18:17;49.47;;;26.47;;
10987;SDS011;5547;42.672;23.230;2024-03-02T03:21:17;51.23;;;26.67;;
10987;SDS011;5547;42.672;23.230;2024-03-02T03:24:18;51.17;;;26.10;;
10987;SDS011;5547;42.672;23.230;2024-03-02T03:27:18;50.30;;;26.67;;
10987;SDS011;5547;42.672;23.230;2024-03-02T03:30:19;49.83;;;26.92;;
10987;SDS011;5547;42.672;23.230;2024-03-02T03:33:19;49.80;;;25.77;;
10987;SDS011;5547;42.672;23.230;2024-03-02T03:36:20;46.43;;;23.57;;
10987;SDS011;5547;42.672;23.230;2024-03-02T03:39:20;49.60;;;25.27;;
10987;SDS011;5547;42.672;23.230;2024-03-02T03:42:20;48.77;;;26.13;;
10987;SDS011;5547;42.672;23.230;2024-03-02T03:45:21;52.97;;;28.60;;
10987;SDS011;5547;42.672;23.230;2024-03-02T03:48:21;60.53;;;31.30;;
10987;SDS011;5547;42.672;23.230;2024-03-02T03:51:21;62.63;;;30.80;;
10987;SDS011;5547;42.672;23.230;2024-03-02T03:54:22;57.30;;;30.48;;
10987;SDS011;5547;42.672;23.230;2024-03-02T03:57:23;60.13;;;29.60;;
10987;SDS011;5547;42.672;23.230;2024-03-02T04:00:23;59.50;;;31.13;;
10987;SDS011;5547;42.672;23.230;2024-03-02T04:03:23;66.17;;;32.03;;
10987;SDS011;5547;42.672;23.230;2024-03-02T04:06:23;66.53;;;32.60;;
10987;SDS011;5547;42.672;23.230;2024-03-02T04:09:24;65.33;;;31.77;;
10987;SDS011;5547;42.672;23.230;2024-03-02T04:12:25;70.33;;;39.93;;
10987;SDS011;5547;42.672;23.230;2024-03-02T04:15:25;64.20;;;32.60;;
10987;SDS011;5547;42.672;23.230;2024-03-02T04:18:26;64.73;;;32.77;;
10987;SDS011;5547;42.672;23.230;2024-03-02T04:21:26;62.30;;;31.30;;
10987;SDS011;5547;42.672;23.230;2024-03-02T04:24:26;63.03;;;30.83;;
10987;SDS011;5547;42.672;23.230;2024-03-02T04:27:27;61.73;;;32.87;;
10987;SDS011;5547;42.672;23.230;2024-03-02T04:30:27;63.80;;;30.40;;
10987;SDS011;5547;42.672;23.230;2024-03-02T04:33:27;60.50;;;30.07;;
10987;SDS011;5547;42.672;23.230;2024-03-02T04:36:28;63.83;;;30.70;;
10987;SDS011;5547;42.672;23.230;2024-03-02T04:39:28;105.07;;;33.93;;
10987;SDS011;5547;42.672;23.230;2024-03-02T04:42:28;63.70;;;29.53;;
10987;SDS011;5547;42.672;23.230;2024-03-02T04:45:29;59.87;;;29.37;;
10987;SDS011;5547;42.672;23.230;2024-03-02T04:48:29;57.95;;;29.30;;
10987;SDS011;5547;42.672;23.230;2024-03-02T04:51:29;60.50;;;27.90;;
10987;SDS011;5547;42.672;23.230;2024-03-02T04:54:29;55.33;;;28.80;;
10987;SDS011;5547;42.672;23.230;2024-03-02T04:57:30;54.63;;;28.83;;
10987;SDS011;5547;42.672;23.230;2024-03-02T05:00:30;52.80;;;27.33;;
10987;SDS011;5547;42.672;23.230;2024-03-02T05:03:30;55.43;;;26.57;;
10987;SDS011;5547;42.672;23.230;2024-03-02T05:06:31;49.13;;;26.23;;
10987;SDS011;5547;42.672;23.230;2024-03-02T05:09:31;49.83;;;26.00;;
10987;SDS011;5547;42.672;23.230;2024-03-02T05:12:31;50.43;;;26.33;;
10987;SDS011;5547;42.672;23.230;2024-03-02T05:15:54;44.25;;;25.08;;
10987;SDS011;5547;42.672;23.230;2024-03-02T05:18:56;59.55;;;25.60;;
10987;SDS011;5547;42.672;23.230;2024-03-02T05:21:56;66.88;;;26.92;;
10987;SDS011;5547;42.672;23.230;2024-03-02T05:24:56;55.50;;;28.40;;
10987;SDS011;5547;42.672;23.230;2024-03-02T05:27:57;50.33;;;26.70;;
10987;SDS011;5547;42.672;23.230;2024-03-02T05:30:57;49.33;;;27.42;;
10987;SDS011;5547;42.672;23.230;2024-03-02T05:33:57;43.80;;;24.05;;
10987;SDS011;5547;42.672;23.230;2024-03-02T05:36:57;40.22;;;22.38;;
10987;SDS011;5547;42.672;23.230;2024-03-02T05:39:58;42.23;;;23.17;;
10987;SDS011;5547;42.672;23.230;2024-03-02T05:42:59;41.13;;;23.15;;
10987;SDS011;5547;42.672;23.230;2024-03-02T05:45:59;43.70;;;24.57;;
10987;SDS011;5547;42.672;23.230;2024-03-02T05:49:00;47.17;;;24.90;;
10987;SDS011;5547;42.672;23.230;2024-03-02T05:52:00;46.17;;;25.83;;
10987;SDS011;5547;42.672;23.230;2024-03-02T05:55:01;48.40;;;25.87;;
10987;SDS011;5547;42.672;23.230;2024-03-02T05:58:01;42.50;;;24.53;;
10987;SDS011;5547;42.672;23.230;2024-03-02T06:01:24;46.17;;;26.33;;
10987;SDS011;5547;42.672;23.230;2024-03-02T06:04:28;46.83;;;25.83;;
10987;SDS011;5547;42.672;23.230;2024-03-02T06:07:28;51.80;;;25.17;;
10987;SDS011;5547;42.672;23.230;2024-03-02T06:10:28;45.33;;;24.13;;
10987;SDS011;5547;42.672;23.230;2024-03-02T06:13:29;41.03;;;24.47;;
10987;SDS011;5547;42.672;23.230;2024-03-02T06:16:29;40.43;;;23.40;;
10987;SDS011;5547;42.672;23.230;2024-03-02T06:19:29;43.03;;;23.13;;
10987;SDS011;5547;42.672;23.230;2024-03-02T06:22:30;44.95;;;25.05;;
10987;SDS011;5547;42.672;23.230;2024-03-02T06:25:30;39.30;;;22.40;;
10987;SDS011;5547;42.672;23.230;2024-03-02T06:28:30;40.30;;;23.10;;
10987;SDS011;5547;42.672;23.230;2024-03-02T06:31:30;49.40;;;22.70;;
10987;SDS011;5547;42.672;23.230;2024-03-02T06:34:31;40.03;;;23.20;;
10987;SDS011;5547;42.672;23.230;2024-03-02T06:37:31;41.13;;;24.47;;
10987;SDS011;5547;42.672;23.230;2024-03-02T06:40:31;47.97;;;27.50;;
10987;SDS011;5547;42.672;23.230;2024-03-02T06:43:32;47.70;;;27.57;;
10987;SDS011;5547;42.672;23.230;2024-03-02T06:46:32;52.70;;;28.67;;
10987;SDS011;5547;42.672;23.230;2024-03-02T06:49:32;52.80;;;29.43;;
10987;SDS011;5547;42.672;23.230;2024-03-02T06:52:32;56.67;;;28.43;;
10987;SDS011;5547;42.672;23.230;2024-03-02T06:55:33;53.93;;;28.20;;
10987;SDS011;5547;42.672;23.230;2024-03-02T06:58:33;55.73;;;29.47;;
10987;SDS011;5547;42.672;23.230;2024-03-02T07:01:33;57.17;;;30.90;;
10987;SDS011;5547;42.672;23.230;2024-03-02T07:04:34;54.58;;;29.10;;
10987;SDS011;5547;42.672;23.230;2024-03-02T07:07:34;54.53;;;29.27;;
10987;SDS011;5547;42.672;23.230;2024-03-02T07:10:35;57.57;;;29.73;;
10987;SDS011;5547;42.672;23.230;2024-03-02T07:13:35;62.97;;;32.80;;
10987;SDS011;5547;42.672;23.230;2024-03-02T07:16:37;53.77;;;27.47;;
10987;SDS011;5547;42.672;23.230;2024-03-02T07:19:38;51.50;;;28.57;;
10987;SDS011;5547;42.672;23.230;2024-03-02T07:22:39;51.90;;;27.88;;
10987;SDS011;5547;42.672;23.230;2024-03-02T07:25:39;53.50;;;27.90;;
10987;SDS011;5547;42.672;23.230;2024-03-02T07:28:39;53.63;;;29.73;;
10987;SDS011;5547;42.672;23.230;2024-03-02T07:31:40;46.67;;;25.63;;
10987;SDS011;5547;42.672;23.230;2024-03-02T07:34:40;47.30;;;25.33;;
10987;SDS011;5547;42.672;23.230;2024-03-02T07:37:41;54.00;;;29.60;;
10987;SDS011;5547;42.672;23.230;2024-03-02T07:40:42;55.95;;;30.73;;
10987;SDS011;5547;42.672;23.230;2024-03-02T07:43:42;42.80;;;25.00;;
10987;SDS011;5547;42.672;23.230;2024-03-02T07:46:42;30.70;;;18.07;;
10987;SDS011;5547;42.672;23.230;2024-03-02T07:49:44;34.78;;;18.88;;
10987;SDS011;5547;42.672;23.230;2024-03-02T07:52:44;31.73;;;18.92;;
10987;SDS011;5547;42.672;23.230;2024-03-02T07:55:44;34.60;;;19.20;;
10987;SDS011;5547;42.672;23.230;2024-03-02T07:58:44;31.07;;;17.17;;
10987;SDS011;5547;42.672;23.230;2024-03-02T08:01:45;31.88;;;17.70;;
10987;SDS011;5547;42.672;23.230;2024-03-02T08:04:46;42.50;;;22.45;;
10987;SDS011;5547;42.672;23.230;2024-03-02T08:07:46;41.10;;;22.70;;
10987;SDS011;5547;42.672;23.230;2024-03-02T08:10:47;41.83;;;23.53;;
10987;SDS011;5547;42.672;23.230;2024-03-02T08:13:49;35.50;;;20.92;;
10987;SDS011;5547;42.672;23.230;2024-03-02T08:16:49;40.77;;;22.50;;
10987;SDS011;5547;42.672;23.230;2024-03-02T08:19:49;46.27;;;24.33;;
10987;SDS011;5547;42.672;23.230;2024-03-02T08:22:50;38.60;;;23.17;;
10987;SDS011;5547;42.672;23.230;2024-03-02T08:25:50;37.13;;;21.97;;
10987;SDS011;5547;42.672;23.230;2024-03-02T08:28:51;40.70;;;22.25;;
10987;SDS011;5547;42.672;23.230;2024-03-02T08:31:51;42.60;;;23.60;;
10987;SDS011;5547;42.672;23.230;2024-03-02T08:34:52;40.40;;;22.40;;
10987;SDS011;5547;42.672;23.230;2024-03-02T08:37:52;44.80;;;23.60;;
10987;SDS011;5547;42.672;23.230;2024-03-02T08:40:52;43.53;;;22.73;;
10987;SDS011;5547;42.672;23.230;2024-03-02T08:43:53;42.53;;;23.40;;
10987;SDS011;5547;42.672;23.230;2024-03-02T08:46:54;43.37;;;23.37;;
10987;SDS011;5547;42.672;23.230;2024-03-02T08:49:54;43.67;;;23.97;;
10987;SDS011;5547;42.672;23.230;2024-03-02T08:52:54;38.77;;;22.67;;
10987;SDS011;5547;42.672;23.230;2024-03-02T08:55:55;36.37;;;21.10;;
10987;SDS011;5547;42.672;23.230;2024-03-02T08:58:55;35.17;;;20.33;;
10987;SDS011;5547;42.672;23.230;2024-03-02T09:01:55;36.45;;;20.98;;
10987;SDS011;5547;42.672;23.230;2024-03-02T09:04:56;37.33;;;21.37;;
10987;SDS011;5547;42.672;23.230;2024-03-02T09:07:56;35.43;;;20.90;;
10987;SDS011;5547;42.672;23.230;2024-03-02T09:10:56;36.87;;;21.07;;
10987;SDS011;5547;42.672;23.230;2024-03-02T09:13:56;35.33;;;19.47;;
10987;SDS011;5547;42.672;23.230;2024-03-02T09:16:57;45.77;;;25.33;;
10987;SDS011;5547;42.672;23.230;2024-03-02T09:19:58;44.57;;;24.43;;
10987;SDS011;5547;42.672;23.230;2024-03-02T09:22:58;35.07;;;21.10;;
10987;SDS011;5547;42.672;23.230;2024-03-02T09:25:58;35.63;;;19.77;;
10987;SDS011;5547;42.672;23.230;2024-03-02T09:28:59;32.08;;;20.30;;
10987;SDS011;5547;42.672;23.230;2024-03-02T09:31:59;34.27;;;21.33;;
10987;SDS011;5547;42.672;23.230;2024-03-02T09:34:59;34.10;;;21.57;;
10987;SDS011;5547;42.672;23.230;2024-03-02T09:38:00;28.87;;;18.83;;
10987;SDS011;5547;42.672;23.230;2024-03-02T09:41:00;30.50;;;18.50;;
10987;SDS011;5547;42.672;23.230;2024-03-02T09:44:00;29.67;;;17.80;;
10987;SDS011;5547;42.672;23.230;2024-03-02T09:47:01;34.93;;;20.20;;
10987;SDS011;5547;42.672;23.230;2024-03-02T09:50:01;25.93;;;16.17;;
10987;SDS011;5547;42.672;23.230;2024-03-02T09:53:01;26.80;;;16.93;;
10987;SDS011;5547;42.672;23.230;2024-03-02T09:56:02;23.30;;;15.15;;
10987;SDS011;5547;42.672;23.230;2024-03-02T09:59:02;29.10;;;17.70;;
10987;SDS011;5547;42.672;23.230;2024-03-02T10:02:03;25.27;;;16.17;;
10987;SDS011;5547;42.672;23.230;2024-03-02T10:05:03;28.03;;;19.73;;
10987;SDS011;5547;42.672;23.230;2024-03-02T10:08:04;28.70;;;16.58;;
10987;SDS011;5547;42.672;23.230;2024-03-02T10:11:04;30.83;;;18.87;;
10987;SDS011;5547;42.672;23.230;2024-03-02T10:14:08;36.20;;;22.03;;
10987;SDS011;5547;42.672;23.230;2024-03-02T10:17:09;31.98;;;19.33;;
10987;SDS011;5547;42.672;23.230;2024-03-02T10:20:25;47.73;;;34.20;;
10987;SDS011;5547;42.672;23.230;2024-03-02T10:23:26;39.45;;;24.80;;
10987;SDS011;5547;42.672;23.230;2024-03-02T10:26:26;33.27;;;19.93;;
10987;SDS011;5547;42.672;23.230;2024-03-02T10:29:29;42.77;;;28.27;;
10987;SDS011;5547;42.672;23.230;2024-03-02T10:32:29;34.35;;;21.25;;
10987;SDS011;5547;42.672;23.230;2024-03-02T10:35:29;30.10;;;18.23;;
10987;SDS011;5547;42.672;23.230;2024-03-02T10:38:36;30.48;;;18.60;;
10987;SDS011;5547;42.672;23.230;2024-03-02T10:41:37;50.90;;;33.03;;
10987;SDS011;5547;42.672;23.230;2024-03-02T10:44:37;32.10;;;20.48;;
10987;SDS011;5547;42.672;23.230;2024-03-02T10:47:38;59.70;;;39.67;;
10987;SDS011;5547;42.672;23.230;2024-03-02T10:50:38;33.30;;;20.97;;
10987;SDS011;5547;42.672;23.230;2024-03-02T10:53:39;32.20;;;19.60;;
10987;SDS011;5547;42.672;23.230;2024-03-02T10:56:39;32.97;;;20.70;;
10987;SDS011;5547;42.672;23.230;2024-03-02T10:59:52;38.23;;;24.13;;
10987;SDS011;5547;42.672;23.230;2024-03-02T11:02:56;39.15;;;22.65;;
10987;SDS011;5547;42.672;23.230;2024-03-02T11:05:56;32.97;;;20.60;;
10987;SDS011;5547;42.672;23.230;2024-03-02T11:08:57;32.50;;;20.55;;
10987;SDS011;5547;42.672;23.230;2024-03-02T11:12:03;31.90;;;19.30;;
10987;SDS011;5547;42.672;23.230;2024-03-02T11:15:09;29.58;;;17.83;;
10987;SDS011;5547;42.672;23.230;2024-03-02T11:18:10;36.85;;;24.38;;
10987;SDS011;5547;42.672;23.230;2024-03-02T11:21:10;29.63;;;18.25;;
10987;SDS011;5547;42.672;23.230;2024-03-02T11:33:42;32.75;;;20.63;;
10987;SDS011;5547;42.672;23.230;2024-03-02T11:36:43;35.28;;;21.63;;
10987;SDS011;5547;42.672;23.230;2024-03-02T11:39:44;33.47;;;20.83;;
10987;SDS011;5547;42.672;23.230;2024-03-02T11:42:44;36.05;;;21.52;;
10987;SDS011;5547;42.672;23.230;2024-03-02T11:45:45;34.73;;;21.37;;
10987;SDS011;5547;42.672;23.230;2024-03-02T11:48:45;35.60;;;22.57;;
10987;SDS011;5547;42.672;23.230;2024-03-02T11:51:50;39.92;;;24.50;;
10987;SDS011;5547;42.672;23.230;2024-03-02T11:54:53;40.43;;;24.43;;
10987;SDS011;5547;42.672;23.230;2024-03-02T11:57:53;43.78;;;25.77;;
10987;SDS011;5547;42.672;23.230;2024-03-02T12:00:54;42.42;;;25.25;;
10987;SDS011;5547;42.672;23.230;2024-03-02T12:03:55;42.30;;;25.35;;
10987;SDS011;5547;42.672;23.230;2024-03-02T12:06:59;45.63;;;27.30;;
10987;SDS011;5547;42.672;23.230;2024-03-02T12:10:00;47.45;;;28.38;;
10987;SDS011;5547;42.672;23.230;2024-03-02T12:13:02;47.50;;;29.33;;
10987;SDS011;5547;42.672;23.230;2024-03-02T12:16:03;56.47;;;31.20;;
10987;SDS011;5547;42.672;23.230;2024-03-02T12:19:04;56.97;;;32.50;;
10987;SDS011;5547;42.672;23.230;2024-03-02T12:22:04;56.43;;;33.03;;
10987;SDS011;5547;42.672;23.230;2024-03-02T12:25:05;52.47;;;30.88;;
10987;SDS011;5547;42.672;23.230;2024-03-02T12:28:05;45.43;;;28.83;;
10987;SDS011;5547;42.672;23.230;2024-03-02T12:31:06;47.30;;;28.47;;
10987;SDS011;5547;42.672;23.230;2024-03-02T12:34:06;49.53;;;30.23;;
10987;SDS011;5547;42.672;23.230;2024-03-02T12:37:07;48.10;;;28.55;;
10987;SDS011;5547;42.672;23.230;2024-03-02T12:40:09;47.63;;;29.30;;
10987;SDS011;5547;42.672;23.230;2024-03-02T12:43:10;47.60;;;29.33;;
10987;SDS011;5547;42.672;23.230;2024-03-02T12:46:11;47.33;;;28.85;;
10987;SDS011;5547;42.672;23.230;2024-03-02T12:49:11;42.60;;;26.13;;
10987;SDS011;5547;42.672;23.230;2024-03-02T12:52:13;51.33;;;30.85;;
10987;SDS011;5547;42.672;23.230;2024-03-02T12:55:13;48.13;;;30.10;;
10987;SDS011;5547;42.672;23.230;2024-03-02T12:58:19;48.70;;;29.13;;
10987;SDS011;5547;42.672;23.230;2024-03-02T13:01:21;47.97;;;30.20;;
10987;SDS011;5547;42.672;23.230;2024-03-02T13:04:22;44.70;;;27.90;;
10987;SDS011;5547;42.672;23.230;2024-03-02T13:07:23;44.85;;;27.85;;
10987;SDS011;5547;42.672;23.230;2024-03-02T13:10:23;47.30;;;27.95;;
10987;SDS011;5547;42.672;23.230;2024-03-02T13:13:23;41.63;;;26.43;;
10987;SDS011;5547;42.672;23.230;2024-03-02T13:16:24;42.50;;;26.43;;
10987;SDS011;5547;42.672;23.230;2024-03-02T13:19:26;44.47;;;26.73;;
10987;SDS011;5547;42.672;23.230;2024-03-02T13:22:28;45.73;;;27.57;;
10987;SDS011;5547;42.672;23.230;2024-03-02T13:25:29;43.27;;;26.57;;
10987;SDS011;5547;42.672;23.230;2024-03-02T13:28:31;46.83;;;27.83;;
10987;SDS011;5547;42.672;23.230;2024-03-02T13:31:31;52.50;;;30.17;;
10987;SDS011;5547;42.672;23.230;2024-03-02T13:34:31;48.60;;;29.67;;
10987;SDS011;5547;42.672;23.230;2024-03-02T13:37:32;45.77;;;29.57;;
10987;SDS011;5547;42.672;23.230;2024-03-02T13:40:32;51.07;;;31.63;;
10987;SDS011;5547;42.672;23.230;2024-03-02T13:43:35;51.97;;;32.33;;
10987;SDS011;5547;42.672;23.230;2024-03-02T13:46:37;62.37;;;37.30;;
10987;SDS011;5547;42.672;23.230;2024-03-02T13:49:38;59.67;;;36.13;;
10987;SDS011;5547;42.672;23.230;2024-03-02T13:52:43;61.17;;;36.77;;
10987;SDS011;5547;42.672;23.230;2024-03-02T13:55:43;59.87;;;36.13;;
10987;SDS011;5547;42.672;23.230;2024-03-02T13:58:44;82.03;;;47.80;;
10987;SDS011;5547;42.672;23.230;2024-03-02T14:01:46;65.57;;;39.93;;
10987;SDS011;5547;42.672;23.230;2024-03-02T14:04:46;60.07;;;36.43;;
10987;SDS011;5547;42.672;23.230;2024-03-02T14:07:48;54.57;;;33.63;;
10987;SDS011;5547;42.672;23.230;2024-03-02T14:10:48;55.70;;;33.70;;
10987;SDS011;5547;42.672;23.230;2024-03-02T14:13:49;50.25;;;30.42;;
10987;SDS011;5547;42.672;23.230;2024-03-02T14:16:54;47.05;;;27.13;;
10987;SDS011;5547;42.672;23.230;2024-03-02T14:19:55;47.57;;;30.63;;
10987;SDS011;5547;42.672;23.230;2024-03-02T14:22:57;49.80;;;30.03;;
10987;SDS011;5547;42.672;23.230;2024-03-02T14:25:58;62.50;;;37.88;;
10987;SDS011;5547;42.672;23.230;2024-03-02T14:28:59;54.47;;;32.80;;
10987;SDS011;5547;42.672;23.230;2024-03-02T14:32:01;49.58;;;31.08;;
10987;SDS011;5547;42.672;23.230;2024-03-02T14:35:03;56.72;;;35.55;;
10987;SDS011;5547;42.672;23.230;2024-03-02T14:38:03;48.73;;;31.07;;
10987;SDS011;5547;42.672;23.230;2024-03-02T14:41:04;47.63;;;30.50;;
10987;SDS011;5547;42.672;23.230;2024-03-02T14:44:04;44.23;;;28.00;;
10987;SDS011;5547;42.672;23.230;2024-03-02T14:47:05;44.73;;;27.77;;
10987;SDS011;5547;42.672;23.230;2024-03-02T14:50:07;47.75;;;29.05;;
10987;SDS011;5547;42.672;23.230;2024-03-02T14:53:07;51.17;;;30.37;;
10987;SDS011;5547;42.672;23.230;2024-03-02T14:56:07;44.60;;;29.27;;
10987;SDS011;5547;42.672;23.230;2024-03-02T14:59:08;64.90;;;39.17;;
10987;SDS011;5547;42.672;23.230;2024-03-02T15:02:08;45.73;;;28.67;;
10987;SDS011;5547;42.672;23.230;2024-03-02T15:05:08;38.83;;;24.90;;
10987;SDS011;5547;42.672;23.230;2024-03-02T15:08:09;40.80;;;26.43;;
10987;SDS011;5547;42.672;23.230;2024-03-02T15:11:09;41.10;;;28.10;;
10987;SDS011;5547;42.672;23.230;2024-03-02T15:14:09;40.20;;;26.00;;
10987;SDS011;5547;42.672;23.230;2024-03-02T15:17:10;35.77;;;23.33;;
10987;SDS011;5547;42.672;23.230;2024-03-02T15:20:10;39.17;;;24.87;;
10987;SDS011;5547;42.672;23.230;2024-03-02T15:23:10;43.77;;;26.90;;
10987;SDS011;5547;42.672;23.230;2024-03-02T15:26:10;44.00;;;30.57;;
10987;SDS011;5547;42.672;23.230;2024-03-02T15:29:11;42.00;;;27.27;;
10987;SDS011;5547;42.672;23.230;2024-03-02T15:32:11;38.60;;;25.07;;
10987;SDS011;5547;42.672;23.230;2024-03-02T15:35:11;52.63;;;33.73;;
10987;SDS011;5547;42.672;23.230;2024-03-02T15:38:11;40.63;;;26.23;;
10987;SDS011;5547;42.672;23.230;2024-03-02T15:41:15;39.22;;;24.33;;
10987;SDS011;5547;42.672;23.230;2024-03-02T15:44:15;39.77;;;24.80;;
10987;SDS011;5547;42.672;23.230;2024-03-02T15:47:15;41.07;;;26.87;;
10987;SDS011;5547;42.672;23.230;2024-03-02T15:50:16;40.70;;;25.40;;
10987;SDS011;5547;42.672;23.230;2024-03-02T15:53:16;41.13;;;26.07;;
10987;SDS011;5547;42.672;23.230;2024-03-02T15:56:16;36.70;;;22.87;;
10987;SDS011;5547;42.672;23.230;2024-03-02T15:59:17;33.20;;;21.20;;
10987;SDS011;5547;42.672;23.230;2024-03-02T16:02:17;32.40;;;20.63;;
10987;SDS011;5547;42.672;23.230;2024-03-02T16:05:17;33.47;;;22.63;;
10987;SDS011;5547;42.672;23.230;2024-03-02T16:08:18;37.55;;;24.13;;
10987;SDS011;5547;42.672;23.230;2024-03-02T16:11:18;34.97;;;21.43;;
10987;SDS011;5547;42.672;23.230;2024-03-02T16:14:19;32.83;;;20.73;;
10987;SDS011;5547;42.672;23.230;2024-03-02T16:17:19;32.53;;;20.67;;
10987;SDS011;5547;42.672;23.230;2024-03-02T16:20:19;32.73;;;20.33;;
10987;SDS011;5547;42.672;23.230;2024-03-02T16:23:19;33.00;;;20.90;;
10987;SDS011;5547;42.672;23.230;2024-03-02T16:26:20;31.57;;;19.50;;
10987;SDS011;5547;42.672;23.230;2024-03-02T16:29:20;32.03;;;20.13;;
10987;SDS011;5547;42.672;23.230;2024-03-02T16:32:20;31.70;;;19.37;;
10987;SDS011;5547;42.672;23.230;2024-03-02T16:35:20;29.87;;;19.70;;
10987;SDS011;5547;42.672;23.230;2024-03-02T16:38:21;30.67;;;19.73;;
10987;SDS011;5547;42.672;23.230;2024-03-02T16:41:21;29.07;;;19.33;;
10987;SDS011;5547;42.672;23.230;2024-03-02T16:44:22;27.77;;;18.52;;
10987;SDS011;5547;42.672;23.230;2024-03-02T16:47:23;31.42;;;19.75;;
10987;SDS011;5547;42.672;23.230;2024-03-02T16:50:23;32.63;;;20.13;;
10987;SDS011;5547;42.672;23.230;2024-03-02T16:53:23;28.07;;;18.30;;
10987;SDS011;5547;42.672;23.230;2024-03-02T16:56:24;31.27;;;20.77;;
10987;SDS011;5547;42.672;23.230;2024-03-02T16:59:24;34.07;;;22.73;;
10987;SDS011;5547;42.672;23.230;2024-03-02T17:02:24;49.10;;;32.67;;
10987;SDS011;5547;42.672;23.230;2024-03-02T17:05:25;47.55;;;30.60;;
10987;SDS011;5547;42.672;23.230;2024-03-02T17:08:26;42.63;;;27.27;;
10987;SDS011;5547;42.672;23.230;2024-03-02T17:11:26;53.00;;;32.50;;
10987;SDS011;5547;42.672;23.230;2024-03-02T17:14:26;56.53;;;35.23;;
10987;SDS011;5547;42.672;23.230;2024-03-02T17:17:27;69.47;;;41.40;;
10987;SDS011;5547;42.672;23.230;2024-03-02T17:20:27;73.97;;;43.27;;
10987;SDS011;5547;42.672;23.230;2024-03-02T17:23:28;73.75;;;43.63;;
10987;SDS011;5547;42.672;23.230;2024-03-02T17:26:31;62.67;;;37.10;;
10987;SDS011;5547;42.672;23.230;2024-03-02T17:29:31;63.13;;;37.67;;
10987;SDS011;5547;42.672;23.230;2024-03-02T17:32:33;66.47;;;40.45;;
10987;SDS011;5547;42.672;23.230;2024-03-02T17:35:33;74.43;;;43.23;;
10987;SDS011;5547;42.672;23.230;2024-03-02T17:38:35;78.05;;;44.80;;
10987;SDS011;5547;42.672;23.230;2024-03-02T17:41:35;73.90;;;41.83;;
10987;SDS011;5547;42.672;23.230;2024-03-02T17:44:35;62.63;;;38.20;;
10987;SDS011;5547;42.672;23.230;2024-03-02T17:47:36;70.90;;;39.73;;